sensor_id;sensor_type;location;lat;lon;timestamp;pressure;altitude;pressure_sealevel;temperature;humidity
68077;BME280;54866;53.458;14.540;2022-12-18T00:00:29;102353.97;;;-6.49;100.00
68077;BME280;54866;53.458;14.540;2022-12-18T00:02:59;102353.09;;;-6.50;100.00
68077;BME280;54866;53.458;14.540;2022-12-18T00:05:29;102347.05;;;-6.53;100.00
68077;BME280;54866;53.458;14.540;2022-12-18T00:07:58;102349.92;;;-6.54;100.00
68077;BME280;54866;53.458;14.540;2022-12-18T00:10:28;102353.52;;;-6.55;100.00
68077;BME280;54866;53.458;14.540;2022-12-18T00:12:58;102353.83;;;-6.56;100.00
68077;BME280;54866;53.458;14.540;2022-12-18T00:15:28;102355.91;;;-6.55;100.00
68077;BME280;54866;53.458;14.540;2022-12-18T00:17:57;102354.38;;;-6.55;100.00
68077;BME280;54866;53.458;14.540;2022-12-18T00:20:27;102354.92;;;-6.54;100.00
68077;BME280;54866;53.458;14.540;2022-12-18T00:22:57;102356.48;;;-6.52;100.00
68077;BME280;54866;53.458;14.540;2022-12-18T00:25:27;102357.71;;;-6.50;100.00
68077;BME280;54866;53.458;14.540;2022-12-18T00:27:57;102362.54;;;-6.48;100.00
68077;BME280;54866;53.458;14.540;2022-12-18T00:30:26;102364.47;;;-6.47;100.00
68077;BME280;54866;53.458;14.540;2022-12-18T00:32:56;102363.45;;;-6.46;100.00
68077;BME280;54866;53.458;14.540;2022-12-18T00:35:27;102364.50;;;-6.45;100.00
68077;BME280;54866;53.458;14.540;2022-12-18T00:37:56;102363.27;;;-6.46;100.00
68077;BME280;54866;53.458;14.540;2022-12-18T00:40:26;102368.34;;;-6.50;100.00
68077;BME280;54866;53.458;14.540;2022-12-18T00:42:56;102370.00;;;-6.54;100.00
68077;BME280;54866;53.458;14.540;2022-12-18T00:45:26;102375.75;;;-6.58;100.00
68077;BME280;54866;53.458;14.540;2022-12-18T00:47:57;102376.83;;;-6.63;100.00
68077;BME280;54866;53.458;14.540;2022-12-18T00:50:27;102381.20;;;-6.67;100.00
68077;BME280;54866;53.458;14.540;2022-12-18T00:52:57;102378.22;;;-6.72;100.00
68077;BME280;54866;53.458;14.540;2022-12-18T00:55:26;102375.08;;;-6.75;100.00
68077;BME280;54866;53.458;14.540;2022-12-18T00:57:56;102373.13;;;-6.77;100.00
68077;BME280;54866;53.458;14.540;2022-12-18T01:00:26;102377.21;;;-6.79;100.00
68077;BME280;54866;53.458;14.540;2022-12-18T01:02:55;102380.40;;;-6.82;100.00
68077;BME280;54866;53.458;14.540;2022-12-18T01:05:26;102386.22;;;-6.82;100.00
68077;BME280;54866;53.458;14.540;2022-12-18T01:07:56;102386.73;;;-6.83;100.00
68077;BME280;54866;53.458;14.540;2022-12-18T01:10:27;102384.67;;;-6.82;100.00
68077;BME280;54866;53.458;14.540;2022-12-18T01:12:57;102388.16;;;-6.79;100.00
68077;BME280;54866;53.458;14.540;2022-12-18T01:15:26;102388.06;;;-6.77;100.00
68077;BME280;54866;53.458;14.540;2022-12-18T01:17:56;102392.39;;;-6.75;100.00
68077;BME280;54866;53.458;14.540;2022-12-18T01:20:26;102393.61;;;-6.74;100.00
68077;BME280;54866;53.458;14.540;2022-12-18T01:22:56;102401.99;;;-6.75;100.00
68077;BME280;54866;53.458;14.540;2022-12-18T01:25:25;102396.95;;;-6.78;100.00
68077;BME280;54866;53.458;14.540;2022-12-18T01:27:55;102400.69;;;-6.78;100.00
68077;BME280;54866;53.458;14.540;2022-12-18T01:30:25;102405.02;;;-6.77;100.00
68077;BME280;54866;53.458;14.540;2022-12-18T01:32:55;102404.36;;;-6.77;100.00
68077;BME280;54866;53.458;14.540;2022-12-18T01:35:24;102399.75;;;-6.76;100.00
68077;BME280;54866;53.458;14.540;2022-12-18T01:37:56;102394.27;;;-6.75;100.00
68077;BME280;54866;53.458;14.540;2022-12-18T01:40:26;102398.41;;;-6.73;100.00
68077;BME280;54866;53.458;14.540;2022-12-18T01:42:56;102400.84;;;-6.72;100.00
68077;BME280;54866;53.458;14.540;2022-12-18T01:45:29;102394.02;;;-6.71;100.00
68077;BME280;54866;53.458;14.540;2022-12-18T01:48:02;102400.77;;;-6.67;100.00
68077;BME280;54866;53.458;14.540;2022-12-18T01:50:35;102401.27;;;-6.66;100.00
68077;BME280;54866;53.458;14.540;2022-12-18T01:53:09;102409.77;;;-6.71;100.00
68077;BME280;54866;53.458;14.540;2022-12-18T01:55:45;102408.36;;;-6.73;100.00
68077;BME280;54866;53.458;14.540;2022-12-18T01:58:17;102416.27;;;-6.72;100.00
68077;BME280;54866;53.458;14.540;2022-12-18T02:00:47;102415.41;;;-6.72;100.00
68077;BME280;54866;53.458;14.540;2022-12-18T02:03:17;102410.75;;;-6.73;100.00
68077;BME280;54866;53.458;14.540;2022-12-18T02:05:49;102407.40;;;-6.78;100.00
68077;BME280;54866;53.458;14.540;2022-12-18T02:08:25;102415.39;;;-6.81;100.00
68077;BME280;54866;53.458;14.540;2022-12-18T02:11:04;102421.00;;;-6.82;100.00
68077;BME280;54866;53.458;14.540;2022-12-18T02:13:40;102418.77;;;-6.83;100.00
68077;BME280;54866;53.458;14.540;2022-12-18T02:16:17;102417.94;;;-6.81;100.00
68077;BME280;54866;53.458;14.540;2022-12-18T02:18:50;102419.14;;;-6.81;100.00
68077;BME280;54866;53.458;14.540;2022-12-18T02:21:30;102421.02;;;-6.82;100.00
68077;BME280;54866;53.458;14.540;2022-12-18T02:24:15;102425.79;;;-6.83;100.00
68077;BME280;54866;53.458;14.540;2022-12-18T02:26:49;102422.10;;;-6.88;100.00
68077;BME280;54866;53.458;14.540;2022-12-18T02:29:22;102423.40;;;-6.91;100.00
68077;BME280;54866;53.458;14.540;2022-12-18T02:31:59;102415.40;;;-6.97;100.00
68077;BME280;54866;53.458;14.540;2022-12-18T02:34:33;102419.68;;;-6.96;100.00
68077;BME280;54866;53.458;14.540;2022-12-18T02:37:07;102430.09;;;-6.98;100.00
68077;BME280;54866;53.458;14.540;2022-12-18T02:39:42;102430.21;;;-7.01;100.00
68077;BME280;54866;53.458;14.540;2022-12-18T02:42:13;102433.97;;;-7.01;100.00
68077;BME280;54866;53.458;14.540;2022-12-18T02:44:47;102434.48;;;-7.02;100.00
68077;BME280;54866;53.458;14.540;2022-12-18T02:47:19;102437.34;;;-7.04;100.00
68077;BME280;54866;53.458;14.540;2022-12-18T02:49:55;102433.20;;;-7.05;100.00
68077;BME280;54866;53.458;14.540;2022-12-18T02:52:34;102436.77;;;-7.08;100.00
68077;BME280;54866;53.458;14.540;2022-12-18T02:55:11;102432.42;;;-7.10;100.00
68077;BME280;54866;53.458;14.540;2022-12-18T02:57:46;102429.28;;;-7.12;100.00
68077;BME280;54866;53.458;14.540;2022-12-18T03:00:21;102431.51;;;-7.12;100.00
68077;BME280;54866;53.458;14.540;2022-12-18T03:02:52;102423.56;;;-7.14;100.00
68077;BME280;54866;53.458;14.540;2022-12-18T03:05:29;102432.90;;;-7.18;100.00
68077;BME280;54866;53.458;14.540;2022-12-18T03:08:03;102428.18;;;-7.23;100.00
68077;BME280;54866;53.458;14.540;2022-12-18T03:10:37;102432.48;;;-7.22;100.00
68077;BME280;54866;53.458;14.540;2022-12-18T03:13:07;102435.38;;;-7.23;100.00
68077;BME280;54866;53.458;14.540;2022-12-18T03:15:41;102439.81;;;-7.23;100.00
68077;BME280;54866;53.458;14.540;2022-12-18T03:18:15;102447.86;;;-7.24;100.00
68077;BME280;54866;53.458;14.540;2022-12-18T03:20:47;102454.88;;;-7.24;100.00
68077;BME280;54866;53.458;14.540;2022-12-18T03:23:20;102452.17;;;-7.30;100.00
68077;BME280;54866;53.458;14.540;2022-12-18T03:25:54;102451.22;;;-7.34;100.00
68077;BME280;54866;53.458;14.540;2022-12-18T03:28:25;102459.84;;;-7.38;100.00
68077;BME280;54866;53.458;14.540;2022-12-18T03:31:00;102456.32;;;-7.43;100.00
68077;BME280;54866;53.458;14.540;2022-12-18T03:33:34;102457.32;;;-7.44;100.00
68077;BME280;54866;53.458;14.540;2022-12-18T03:36:07;102460.55;;;-7.45;100.00
68077;BME280;54866;53.458;14.540;2022-12-18T03:38:37;102462.80;;;-7.44;100.00
68077;BME280;54866;53.458;14.540;2022-12-18T03:41:14;102466.61;;;-7.42;100.00
68077;BME280;54866;53.458;14.540;2022-12-18T03:43:50;102469.56;;;-7.40;100.00
68077;BME280;54866;53.458;14.540;2022-12-18T03:46:26;102467.04;;;-7.38;100.00
68077;BME280;54866;53.458;14.540;2022-12-18T03:49:02;102463.14;;;-7.36;100.00
68077;BME280;54866;53.458;14.540;2022-12-18T03:51:39;102468.83;;;-7.35;100.00
68077;BME280;54866;53.458;14.540;2022-12-18T03:54:12;102466.61;;;-7.35;100.00
68077;BME280;54866;53.458;14.540;2022-12-18T03:56:50;102465.80;;;-7.32;100.00
68077;BME280;54866;53.458;14.540;2022-12-18T03:59:23;102468.39;;;-7.31;100.00
68077;BME280;54866;53.458;14.540;2022-12-18T04:01:55;102475.45;;;-7.29;100.00
68077;BME280;54866;53.458;14.540;2022-12-18T04:04:28;102474.52;;;-7.27;100.00
68077;BME280;54866;53.458;14.540;2022-12-18T04:06:58;102472.68;;;-7.24;100.00
68077;BME280;54866;53.458;14.540;2022-12-18T04:09:28;102471.69;;;-7.22;100.00
68077;BME280;54866;53.458;14.540;2022-12-18T04:11:59;102469.00;;;-7.21;100.00
68077;BME280;54866;53.458;14.540;2022-12-18T04:14:29;102469.91;;;-7.18;100.00
68077;BME280;54866;53.458;14.540;2022-12-18T04:17:03;102472.90;;;-7.14;100.00
68077;BME280;54866;53.458;14.540;2022-12-18T04:19:33;102470.60;;;-7.11;100.00
68077;BME280;54866;53.458;14.540;2022-12-18T04:22:03;102469.15;;;-7.07;100.00
68077;BME280;54866;53.458;14.540;2022-12-18T04:24:32;102473.17;;;-7.03;100.00
68077;BME280;54866;53.458;14.540;2022-12-18T04:27:02;102468.95;;;-7.00;100.00
68077;BME280;54866;53.458;14.540;2022-12-18T04:29:32;102470.23;;;-6.95;100.00
68077;BME280;54866;53.458;14.540;2022-12-18T04:32:02;102471.44;;;-6.96;100.00
68077;BME280;54866;53.458;14.540;2022-12-18T04:34:32;102477.69;;;-6.92;100.00
68077;BME280;54866;53.458;14.540;2022-12-18T04:37:02;102485.23;;;-6.92;100.00
68077;BME280;54866;53.458;14.540;2022-12-18T04:39:31;102486.55;;;-6.94;100.00
68077;BME280;54866;53.458;14.540;2022-12-18T04:42:02;102486.52;;;-6.95;100.00
68077;BME280;54866;53.458;14.540;2022-12-18T04:44:32;102479.48;;;-6.96;100.00
68077;BME280;54866;53.458;14.540;2022-12-18T04:47:02;102473.48;;;-6.95;100.00
68077;BME280;54866;53.458;14.540;2022-12-18T04:49:32;102471.77;;;-6.96;100.00
68077;BME280;54866;53.458;14.540;2022-12-18T04:52:02;102470.04;;;-6.96;100.00
68077;BME280;54866;53.458;14.540;2022-12-18T04:54:31;102465.71;;;-6.98;100.00
68077;BME280;54866;53.458;14.540;2022-12-18T04:57:01;102470.92;;;-6.95;100.00
68077;BME280;54866;53.458;14.540;2022-12-18T04:59:31;102483.86;;;-6.93;100.00
68077;BME280;54866;53.458;14.540;2022-12-18T05:02:01;102482.81;;;-6.93;100.00
68077;BME280;54866;53.458;14.540;2022-12-18T05:04:31;102487.05;;;-6.94;100.00
68077;BME280;54866;53.458;14.540;2022-12-18T05:07:00;102480.70;;;-6.95;100.00
68077;BME280;54866;53.458;14.540;2022-12-18T05:09:30;102480.02;;;-6.94;100.00
68077;BME280;54866;53.458;14.540;2022-12-18T05:12:00;102487.98;;;-6.93;100.00
68077;BME280;54866;53.458;14.540;2022-12-18T05:14:29;102495.71;;;-6.91;100.00
68077;BME280;54866;53.458;14.540;2022-12-18T05:16:59;102499.80;;;-6.92;100.00
68077;BME280;54866;53.458;14.540;2022-12-18T05:19:29;102508.04;;;-6.91;100.00
68077;BME280;54866;53.458;14.540;2022-12-18T05:21:58;102510.14;;;-6.89;100.00
68077;BME280;54866;53.458;14.540;2022-12-18T05:24:29;102511.83;;;-6.91;100.00
68077;BME280;54866;53.458;14.540;2022-12-18T05:26:59;102520.20;;;-6.92;100.00
68077;BME280;54866;53.458;14.540;2022-12-18T05:29:29;102526.34;;;-6.93;100.00
68077;BME280;54866;53.458;14.540;2022-12-18T05:31:58;102529.95;;;-6.92;100.00
68077;BME280;54866;53.458;14.540;2022-12-18T05:34:28;102527.04;;;-6.92;100.00
68077;BME280;54866;53.458;14.540;2022-12-18T05:36:58;102523.91;;;-6.94;100.00
68077;BME280;54866;53.458;14.540;2022-12-18T05:39:28;102526.92;;;-6.90;100.00
68077;BME280;54866;53.458;14.540;2022-12-18T05:41:57;102533.05;;;-6.92;100.00
68077;BME280;54866;53.458;14.540;2022-12-18T05:44:27;102534.19;;;-6.94;100.00
68077;BME280;54866;53.458;14.540;2022-12-18T05:46:57;102536.36;;;-6.96;100.00
68077;BME280;54866;53.458;14.540;2022-12-18T05:49:27;102538.91;;;-6.96;100.00
68077;BME280;54866;53.458;14.540;2022-12-18T05:51:57;102540.08;;;-6.98;100.00
68077;BME280;54866;53.458;14.540;2022-12-18T05:54:28;102545.05;;;-6.98;100.00
68077;BME280;54866;53.458;14.540;2022-12-18T05:56:58;102538.45;;;-7.02;100.00
68077;BME280;54866;53.458;14.540;2022-12-18T05:59:28;102549.90;;;-7.04;100.00
68077;BME280;54866;53.458;14.540;2022-12-18T06:01:57;102550.55;;;-7.05;100.00
68077;BME280;54866;53.458;14.540;2022-12-18T06:04:29;102560.93;;;-7.08;100.00
68077;BME280;54866;53.458;14.540;2022-12-18T06:06:59;102569.84;;;-7.15;100.00
68077;BME280;54866;53.458;14.540;2022-12-18T06:09:30;102567.05;;;-7.16;100.00
68077;BME280;54866;53.458;14.540;2022-12-18T06:12:00;102561.13;;;-7.21;100.00
68077;BME280;54866;53.458;14.540;2022-12-18T06:14:30;102557.64;;;-7.23;100.00
68077;BME280;54866;53.458;14.540;2022-12-18T06:16:59;102559.13;;;-7.26;100.00
68077;BME280;54866;53.458;14.540;2022-12-18T06:19:29;102563.39;;;-7.26;100.00
68077;BME280;54866;53.458;14.540;2022-12-18T06:21:59;102554.81;;;-7.27;100.00
68077;BME280;54866;53.458;14.540;2022-12-18T06:24:29;102559.66;;;-7.25;100.00
68077;BME280;54866;53.458;14.540;2022-12-18T06:26:59;102560.23;;;-7.23;100.00
68077;BME280;54866;53.458;14.540;2022-12-18T06:29:28;102556.33;;;-7.21;100.00
68077;BME280;54866;53.458;14.540;2022-12-18T06:31:58;102564.31;;;-7.16;100.00
68077;BME280;54866;53.458;14.540;2022-12-18T06:34:28;102573.67;;;-7.12;100.00
68077;BME280;54866;53.458;14.540;2022-12-18T06:36:57;102577.02;;;-7.09;100.00
68077;BME280;54866;53.458;14.540;2022-12-18T06:39:28;102583.26;;;-7.05;100.00
68077;BME280;54866;53.458;14.540;2022-12-18T06:41:58;102590.50;;;-7.04;100.00
68077;BME280;54866;53.458;14.540;2022-12-18T06:44:28;102600.48;;;-7.02;100.00
68077;BME280;54866;53.458;14.540;2022-12-18T06:46:57;102603.92;;;-7.01;100.00
68077;BME280;54866;53.458;14.540;2022-12-18T06:49:27;102609.54;;;-7.02;100.00
68077;BME280;54866;53.458;14.540;2022-12-18T06:51:57;102606.94;;;-7.04;100.00
68077;BME280;54866;53.458;14.540;2022-12-18T06:54:27;102606.39;;;-7.05;100.00
68077;BME280;54866;53.458;14.540;2022-12-18T06:56:56;102604.98;;;-7.07;100.00
68077;BME280;54866;53.458;14.540;2022-12-18T06:59:26;102603.98;;;-7.06;100.00
68077;BME280;54866;53.458;14.540;2022-12-18T07:01:56;102614.45;;;-7.05;100.00
68077;BME280;54866;53.458;14.540;2022-12-18T07:04:30;102612.34;;;-7.08;100.00
68077;BME280;54866;53.458;14.540;2022-12-18T07:06:59;102613.31;;;-7.10;100.00
68077;BME280;54866;53.458;14.540;2022-12-18T07:09:29;102605.52;;;-7.12;100.00
68077;BME280;54866;53.458;14.540;2022-12-18T07:11:59;102610.39;;;-7.16;100.00
68077;BME280;54866;53.458;14.540;2022-12-18T07:14:28;102613.61;;;-7.17;100.00
68077;BME280;54866;53.458;14.540;2022-12-18T07:16:58;102610.65;;;-7.19;100.00
68077;BME280;54866;53.458;14.540;2022-12-18T07:19:28;102601.52;;;-7.22;100.00
68077;BME280;54866;53.458;14.540;2022-12-18T07:21:58;102594.13;;;-7.23;100.00
68077;BME280;54866;53.458;14.540;2022-12-18T07:24:28;102601.71;;;-7.21;100.00
68077;BME280;54866;53.458;14.540;2022-12-18T07:26:58;102600.84;;;-7.21;100.00
68077;BME280;54866;53.458;14.540;2022-12-18T07:29:27;102605.30;;;-7.21;100.00
68077;BME280;54866;53.458;14.540;2022-12-18T07:31:57;102604.29;;;-7.20;100.00
68077;BME280;54866;53.458;14.540;2022-12-18T07:34:27;102611.35;;;-7.19;100.00
68077;BME280;54866;53.458;14.540;2022-12-18T07:36:56;102618.27;;;-7.16;100.00
68077;BME280;54866;53.458;14.540;2022-12-18T07:39:26;102618.67;;;-7.13;100.00
68077;BME280;54866;53.458;14.540;2022-12-18T07:41:56;102614.17;;;-7.10;100.00
68077;BME280;54866;53.458;14.540;2022-12-18T07:44:43;102620.29;;;-7.04;100.00
68077;BME280;54866;53.458;14.540;2022-12-18T07:47:13;102621.89;;;-7.02;100.00
68077;BME280;54866;53.458;14.540;2022-12-18T07:49:42;102625.64;;;-7.03;100.00
68077;BME280;54866;53.458;14.540;2022-12-18T07:52:12;102610.61;;;-7.01;100.00
68077;BME280;54866;53.458;14.540;2022-12-18T07:54:42;102609.79;;;-6.99;100.00
68077;BME280;54866;53.458;14.540;2022-12-18T07:57:12;102623.14;;;-7.00;100.00
68077;BME280;54866;53.458;14.540;2022-12-18T07:59:41;102635.95;;;-7.01;100.00
68077;BME280;54866;53.458;14.540;2022-12-18T08:02:11;102643.46;;;-7.02;100.00
68077;BME280;54866;53.458;14.540;2022-12-18T08:04:41;102650.16;;;-7.01;100.00
68077;BME280;54866;53.458;14.540;2022-12-18T08:07:11;102650.81;;;-7.03;100.00
68077;BME280;54866;53.458;14.540;2022-12-18T08:09:41;102657.44;;;-7.05;100.00
68077;BME280;54866;53.458;14.540;2022-12-18T08:12:11;102651.40;;;-7.08;100.00
68077;BME280;54866;53.458;14.540;2022-12-18T08:14:40;102654.64;;;-7.08;100.00
68077;BME280;54866;53.458;14.540;2022-12-18T08:17:10;102649.48;;;-7.09;100.00
68077;BME280;54866;53.458;14.540;2022-12-18T08:19:40;102655.16;;;-7.07;100.00
68077;BME280;54866;53.458;14.540;2022-12-18T08:22:09;102658.08;;;-7.07;100.00
68077;BME280;54866;53.458;14.540;2022-12-18T08:24:39;102662.02;;;-7.07;100.00
68077;BME280;54866;53.458;14.540;2022-12-18T08:27:09;102660.48;;;-7.07;100.00
68077;BME280;54866;53.458;14.540;2022-12-18T08:29:39;102682.96;;;-7.06;100.00
68077;BME280;54866;53.458;14.540;2022-12-18T08:32:08;102682.34;;;-7.03;100.00
68077;BME280;54866;53.458;14.540;2022-12-18T08:34:38;102667.65;;;-7.01;100.00
68077;BME280;54866;53.458;14.540;2022-12-18T08:37:08;102663.41;;;-6.99;100.00
68077;BME280;54866;53.458;14.540;2022-12-18T08:39:38;102659.55;;;-6.95;100.00
68077;BME280;54866;53.458;14.540;2022-12-18T08:42:07;102652.79;;;-6.93;100.00
68077;BME280;54866;53.458;14.540;2022-12-18T08:44:55;102643.63;;;-6.89;100.00
68077;BME280;54866;53.458;14.540;2022-12-18T08:47:25;102644.05;;;-6.86;100.00
68077;BME280;54866;53.458;14.540;2022-12-18T08:49:55;102654.33;;;-6.86;100.00
68077;BME280;54866;53.458;14.540;2022-12-18T08:52:24;102662.98;;;-6.89;100.00
68077;BME280;54866;53.458;14.540;2022-12-18T08:54:54;102664.09;;;-6.93;100.00
68077;BME280;54866;53.458;14.540;2022-12-18T08:57:24;102666.41;;;-6.95;100.00
68077;BME280;54866;53.458;14.540;2022-12-18T08:59:53;102665.21;;;-6.95;100.00
68077;BME280;54866;53.458;14.540;2022-12-18T09:02:23;102662.16;;;-6.94;100.00
68077;BME280;54866;53.458;14.540;2022-12-18T09:04:53;102664.86;;;-6.90;100.00
68077;BME280;54866;53.458;14.540;2022-12-18T09:07:23;102664.77;;;-6.86;100.00
68077;BME280;54866;53.458;14.540;2022-12-18T09:09:52;102668.67;;;-6.80;100.00
68077;BME280;54866;53.458;14.540;2022-12-18T09:12:22;102660.73;;;-6.77;100.00
68077;BME280;54866;53.458;14.540;2022-12-18T09:14:52;102667.04;;;-6.71;100.00
68077;BME280;54866;53.458;14.540;2022-12-18T09:17:21;102658.20;;;-6.67;100.00
68077;BME280;54866;53.458;14.540;2022-12-18T09:19:52;102660.34;;;-6.64;100.00
68077;BME280;54866;53.458;14.540;2022-12-18T09:22:21;102662.48;;;-6.60;100.00
68077;BME280;54866;53.458;14.540;2022-12-18T09:24:51;102661.01;;;-6.58;100.00
68077;BME280;54866;53.458;14.540;2022-12-18T09:27:22;102656.70;;;-6.59;100.00
68077;BME280;54866;53.458;14.540;2022-12-18T09:29:51;102662.77;;;-6.57;100.00
68077;BME280;54866;53.458;14.540;2022-12-18T09:32:21;102678.55;;;-6.56;100.00
68077;BME280;54866;53.458;14.540;2022-12-18T09:34:51;102673.64;;;-6.53;100.00
68077;BME280;54866;53.458;14.540;2022-12-18T09:37:21;102672.08;;;-6.54;100.00
68077;BME280;54866;53.458;14.540;2022-12-18T09:39:51;102674.54;;;-6.58;100.00
68077;BME280;54866;53.458;14.540;2022-12-18T09:42:22;102671.03;;;-6.61;100.00
68077;BME280;54866;53.458;14.540;2022-12-18T09:44:53;102670.76;;;-6.59;100.00
68077;BME280;54866;53.458;14.540;2022-12-18T09:47:27;102677.66;;;-6.57;100.00
68077;BME280;54866;53.458;14.540;2022-12-18T09:50:00;102678.89;;;-6.56;100.00
68077;BME280;54866;53.458;14.540;2022-12-18T09:52:35;102677.73;;;-6.54;100.00
68077;BME280;54866;53.458;14.540;2022-12-18T09:55:14;102674.44;;;-6.48;100.00
68077;BME280;54866;53.458;14.540;2022-12-18T09:57:51;102665.14;;;-6.43;100.00
68077;BME280;54866;53.458;14.540;2022-12-18T10:00:23;102669.85;;;-6.40;100.00
68077;BME280;54866;53.458;14.540;2022-12-18T10:02:56;102672.60;;;-6.40;100.00
68077;BME280;54866;53.458;14.540;2022-12-18T10:05:33;102678.11;;;-6.39;100.00
68077;BME280;54866;53.458;14.540;2022-12-18T10:08:10;102673.35;;;-6.36;100.00
68077;BME280;54866;53.458;14.540;2022-12-18T10:10:46;102679.24;;;-6.33;100.00
68077;BME280;54866;53.458;14.540;2022-12-18T10:13:22;102683.75;;;-6.31;100.00
68077;BME280;54866;53.458;14.540;2022-12-18T10:16:02;102680.45;;;-6.25;100.00
68077;BME280;54866;53.458;14.540;2022-12-18T10:18:45;102685.85;;;-6.22;100.00
68077;BME280;54866;53.458;14.540;2022-12-18T10:21:23;102682.13;;;-6.27;100.00
68077;BME280;54866;53.458;14.540;2022-12-18T10:23:59;102682.21;;;-6.30;100.00
68077;BME280;54866;53.458;14.540;2022-12-18T10:26:33;102673.64;;;-6.31;100.00
68077;BME280;54866;53.458;14.540;2022-12-18T10:29:03;102676.45;;;-6.28;100.00
68077;BME280;54866;53.458;14.540;2022-12-18T10:31:33;102674.36;;;-6.22;100.00
68077;BME280;54866;53.458;14.540;2022-12-18T10:34:03;102667.82;;;-6.15;100.00
68077;BME280;54866;53.458;14.540;2022-12-18T10:36:33;102659.69;;;-6.11;100.00
68077;BME280;54866;53.458;14.540;2022-12-18T10:39:15;102653.98;;;-6.05;100.00
68077;BME280;54866;53.458;14.540;2022-12-18T10:41:45;102651.70;;;-6.07;100.00
68077;BME280;54866;53.458;14.540;2022-12-18T10:44:19;102649.69;;;-6.05;100.00
68077;BME280;54866;53.458;14.540;2022-12-18T10:46:51;102649.61;;;-6.01;100.00
68077;BME280;54866;53.458;14.540;2022-12-18T10:49:27;102655.13;;;-6.00;100.00
68077;BME280;54866;53.458;14.540;2022-12-18T10:52:11;102662.36;;;-5.98;100.00
68077;BME280;54866;53.458;14.540;2022-12-18T10:54:48;102651.21;;;-5.98;100.00
68077;BME280;54866;53.458;14.540;2022-12-18T10:57:31;102645.42;;;-5.95;100.00
68077;BME280;54866;53.458;14.540;2022-12-18T11:00:22;102636.52;;;-5.94;100.00
68077;BME280;54866;53.458;14.540;2022-12-18T11:02:52;102649.09;;;-5.93;100.00
68077;BME280;54866;53.458;14.540;2022-12-18T11:05:28;102649.59;;;-5.93;100.00
68077;BME280;54866;53.458;14.540;2022-12-18T11:07:59;102650.05;;;-5.95;100.00
68077;BME280;54866;53.458;14.540;2022-12-18T11:10:30;102646.95;;;-5.96;100.00
68077;BME280;54866;53.458;14.540;2022-12-18T11:13:15;102640.20;;;-5.91;100.00
68077;BME280;54866;53.458;14.540;2022-12-18T11:15:47;102628.23;;;-5.88;100.00
68077;BME280;54866;53.458;14.540;2022-12-18T11:18:22;102617.27;;;-5.87;100.00
68077;BME280;54866;53.458;14.540;2022-12-18T11:20:55;102617.10;;;-5.87;100.00
68077;BME280;54866;53.458;14.540;2022-12-18T11:23:27;102618.80;;;-5.87;100.00
68077;BME280;54866;53.458;14.540;2022-12-18T11:25:59;102625.64;;;-5.89;100.00
68077;BME280;54866;53.458;14.540;2022-12-18T11:28:39;102641.61;;;-5.88;100.00
68077;BME280;54866;53.458;14.540;2022-12-18T11:31:26;102640.71;;;-5.91;100.00
68077;BME280;54866;53.458;14.540;2022-12-18T11:34:03;102644.96;;;-5.92;100.00
68077;BME280;54866;53.458;14.540;2022-12-18T11:36:36;102637.41;;;-5.93;100.00
68077;BME280;54866;53.458;14.540;2022-12-18T11:39:15;102628.49;;;-5.92;100.00
68077;BME280;54866;53.458;14.540;2022-12-18T11:41:52;102622.31;;;-5.92;100.00
68077;BME280;54866;53.458;14.540;2022-12-18T11:44:44;102621.63;;;-5.92;100.00
68077;BME280;54866;53.458;14.540;2022-12-18T11:47:21;102621.11;;;-5.92;100.00
68077;BME280;54866;53.458;14.540;2022-12-18T11:49:54;102616.84;;;-5.91;100.00
68077;BME280;54866;53.458;14.540;2022-12-18T11:52:28;102618.57;;;-5.91;100.00
68077;BME280;54866;53.458;14.540;2022-12-18T11:55:04;102614.79;;;-5.91;100.00
68077;BME280;54866;53.458;14.540;2022-12-18T11:57:39;102633.34;;;-5.90;100.00
68077;BME280;54866;53.458;14.540;2022-12-18T12:00:19;102615.64;;;-5.91;100.00
68077;BME280;54866;53.458;14.540;2022-12-18T12:06:10;102611.49;;;-5.93;100.00
68077;BME280;54866;53.458;14.540;2022-12-18T12:08:55;102613.39;;;-5.92;100.00
68077;BME280;54866;53.458;14.540;2022-12-18T12:11:35;102608.79;;;-5.91;100.00
68077;BME280;54866;53.458;14.540;2022-12-18T12:14:32;102605.39;;;-5.89;100.00
68077;BME280;54866;53.458;14.540;2022-12-18T12:17:14;102602.01;;;-5.86;100.00
68077;BME280;54866;53.458;14.540;2022-12-18T12:19:53;102608.41;;;-5.83;100.00
68077;BME280;54866;53.458;14.540;2022-12-18T12:22:33;102607.91;;;-5.82;100.00
68077;BME280;54866;53.458;14.540;2022-12-18T12:25:16;102613.80;;;-5.80;100.00
68077;BME280;54866;53.458;14.540;2022-12-18T12:27:52;102623.61;;;-5.78;100.00
68077;BME280;54866;53.458;14.540;2022-12-18T12:30:30;102625.30;;;-5.79;100.00
68077;BME280;54866;53.458;14.540;2022-12-18T12:33:17;102616.06;;;-5.78;100.00
68077;BME280;54866;53.458;14.540;2022-12-18T12:35:55;102615.31;;;-5.81;100.00
68077;BME280;54866;53.458;14.540;2022-12-18T12:38:33;102611.30;;;-5.84;100.00
68077;BME280;54866;53.458;14.540;2022-12-18T12:41:06;102610.44;;;-5.85;100.00
68077;BME280;54866;53.458;14.540;2022-12-18T12:43:58;102610.64;;;-5.83;100.00
68077;BME280;54866;53.458;14.540;2022-12-18T12:46:34;102612.26;;;-5.79;100.00
68077;BME280;54866;53.458;14.540;2022-12-18T12:49:11;102613.52;;;-5.76;100.00
68077;BME280;54866;53.458;14.540;2022-12-18T12:51:45;102613.26;;;-5.72;100.00
68077;BME280;54866;53.458;14.540;2022-12-18T12:54:19;102617.54;;;-5.72;100.00
68077;BME280;54866;53.458;14.540;2022-12-18T12:56:54;102614.04;;;-5.75;100.00
68077;BME280;54866;53.458;14.540;2022-12-18T12:59:34;102625.19;;;-5.76;100.00